Time,TemperatureF,DewpointF,PressureIn,WindDirection,WindDirectionDegrees,WindSpeedMPH,WindSpeedGustMPH,Humidity,HourlyPrecipIn,Conditions,Clouds,dailyrainin,SoftwareType,DateUTC
2013-02-03 00:00:00,16.9,8.5,30.00,SE,135,1.6,1.6,69,0.00,,---,0.00,VWS V14.01,2013-02-03 05:00:00,
2013-02-03 00:05:00,16.9,8.5,30.00,SE,135,0.0,0.0,69,0.00,,---,0.00,VWS V14.01,2013-02-03 05:05:00,
2013-02-03 00:10:00,16.9,8.2,30.00,WSW,248,0.0,0.0,68,0.00,,---,0.00,VWS V14.01,2013-02-03 05:10:00,
2013-02-03 00:15:00,16.9,8.2,30.00,East,90,0.0,0.0,68,0.00,,---,0.00,VWS V14.01,2013-02-03 05:15:00,
2013-02-03 00:20:00,16.9,8.5,30.00,SE,135,0.0,0.9,69,0.00,,---,0.00,VWS V14.01,2013-02-03 05:20:00,
2013-02-03 00:25:00,16.9,8.5,30.00,SE,135,0.0,0.0,69,0.00,,---,0.00,VWS V14.01,2013-02-03 05:25:00,
2013-02-03 00:30:00,16.9,8.8,30.00,ESE,112,1.1,2.7,70,0.00,,---,0.00,VWS V14.01,2013-02-03 05:30:00,
2013-02-03 00:35:00,16.9,9.1,30.00,SE,135,2.0,2.0,71,0.00,,---,0.00,VWS V14.01,2013-02-03 05:35:00,
2013-02-03 00:40:00,16.7,8.9,30.00,SE,135,0.0,0.0,71,0.00,,---,0.00,VWS V14.01,2013-02-03 05:40:00,
2013-02-03 00:45:00,16.7,9.3,30.00,WNW,292,0.0,0.0,72,0.00,,---,0.00,VWS V14.01,2013-02-03 05:45:00,
2013-02-03 00:50:00,16.7,8.9,30.00,SE,135,0.0,0.0,71,0.00,,---,0.00,VWS V14.01,2013-02-03 05:50:00,
2013-02-03 00:55:00,16.7,8.6,30.00,South,180,0.0,0.0,70,0.00,,---,0.00,VWS V14.01,2013-02-03 05:55:00,
2013-02-03 01:00:00,16.7,8.6,30.00,SE,135,0.0,0.0,70,0.00,,---,0.00,VWS V14.01,2013-02-03 06:00:00,
2013-02-03 01:05:00,16.7,8.6,30.00,SE,135,0.0,0.0,70,0.00,,---,0.00,VWS V14.01,2013-02-03 06:05:00,
2013-02-03 01:10:00,16.7,8.6,30.00,SE,135,0.0,0.0,70,0.00,,---,0.00,VWS V14.01,2013-02-03 06:10:00,
2013-02-03 01:15:00,16.7,8.6,30.00,ESE,112,0.0,0.9,70,0.00,,---,0.00,VWS V14.01,2013-02-03 06:15:00,
2013-02-03 01:20:00,16.7,8.6,30.00,SE,135,0.0,0.0,70,0.00,,---,0.00,VWS V14.01,2013-02-03 06:20:00,
2013-02-03 01:25:00,16.7,8.6,30.00,SE,135,0.0,0.0,70,0.00,,---,0.00,VWS V14.01,2013-02-03 06:25:00,
2013-02-03 01:30:00,16.7,8.6,29.97,WSW,248,0.0,0.0,70,0.00,,---,0.00,VWS V14.01,2013-02-03 06:30:00,
2013-02-03 01:35:00,16.7,8.3,29.97,West,270,0.0,0.0,69,0.00,,---,0.00,VWS V14.01,2013-02-03 06:35:00,
2013-02-03 01:40:00,16.5,8.5,29.97,SE,135,0.0,0.0,70,0.00,,---,0.00,VWS V14.01,2013-02-03 06:40:00,
2013-02-03 01:45:00,16.5,8.5,30.00,SSE,158,0.0,1.6,70,0.00,,---,0.00,VWS V14.01,2013-02-03 06:45:00,
2013-02-03 01:50:00,16.5,8.5,30.00,South,180,0.0,0.0,70,0.00,,---,0.00,VWS V14.01,2013-02-03 06:50:00,
2013-02-03 01:55:00,16.5,8.5,30.00,SE,135,0.0,0.0,70,0.00,,---,0.00,VWS V14.01,2013-02-03 06:55:00,
2013-02-03 02:00:00,16.5,8.5,29.97,SE,135,0.0,0.0,70,0.00,,---,0.00,VWS V14.01,2013-02-03 07:00:00,
2013-02-03 02:05:00,16.5,8.1,29.97,ESE,112,0.0,1.3,69,0.00,,---,0.00,VWS V14.01,2013-02-03 07:05:00,
2013-02-03 02:10:00,16.5,7.8,29.97,ESE,112,0.0,0.0,68,0.00,,---,0.00,VWS V14.01,2013-02-03 07:10:00,
2013-02-03 02:15:00,16.5,8.1,29.97,SE,135,0.0,0.0,69,0.00,,---,0.00,VWS V14.01,2013-02-03 07:15:00,
2013-02-03 02:20:00,16.5,8.1,29.97,South,180,0.0,0.0,69,0.00,,---,0.00,VWS V14.01,2013-02-03 07:20:00,
2013-02-03 02:25:00,16.3,8.0,29.97,SE,135,0.0,0.0,69,0.00,,---,0.00,VWS V14.01,2013-02-03 07:25:00,
2013-02-03 02:30:00,16.2,7.8,29.97,SE,135,0.0,0.0,69,0.00,,---,0.00,VWS V14.01,2013-02-03 07:30:00,
2013-02-03 02:36:00,16.2,7.8,29.97,SE,135,0.0,0.0,69,0.00,,---,0.00,VWS V14.01,2013-02-03 07:36:00,
2013-02-03 02:40:00,16.2,8.1,29.97,SE,135,0.0,0.0,70,0.00,,---,0.00,VWS V14.01,2013-02-03 07:40:00,
2013-02-03 02:46:00,16.2,8.1,29.97,West,270,0.0,0.0,70,0.00,,---,0.00,VWS V14.01,2013-02-03 07:46:00,
2013-02-03 02:51:00,16.2,8.1,29.97,WSW,248,0.0,0.0,70,0.00,,---,0.00,VWS V14.01,2013-02-03 07:51:00,
2013-02-03 02:55:00,16.2,7.8,29.97,SE,135,0.0,0.0,69,0.00,,---,0.00,VWS V14.01,2013-02-03 07:55:00,
2013-02-03 03:00:00,16.2,8.1,29.97,SE,135,0.0,0.0,70,0.00,,---,0.00,VWS V14.01,2013-02-03 08:00:00,
2013-02-03 03:06:00,16.0,7.9,29.97,SE,135,0.0,0.0,70,0.00,,---,0.00,VWS V14.01,2013-02-03 08:06:00,
2013-02-03 03:11:00,16.0,7.9,29.97,SE,135,0.0,0.0,70,0.00,,---,0.00,VWS V14.01,2013-02-03 08:11:00,
2013-02-03 03:16:00,16.0,7.6,29.94,NW,315,0.0,0.0,69,0.00,,---,0.00,VWS V14.01,2013-02-03 08:16:00,
2013-02-03 03:21:00,16.0,7.6,29.94,NW,315,0.0,0.0,69,0.00,,---,0.00,VWS V14.01,2013-02-03 08:21:00,
2013-02-03 03:26:00,15.8,7.4,29.94,NW,315,0.0,0.0,69,0.00,,---,0.00,VWS V14.01,2013-02-03 08:26:00,
2013-02-03 03:31:00,15.6,7.3,29.94,NW,315,0.0,0.0,69,0.00,,---,0.00,VWS V14.01,2013-02-03 08:31:00,
2013-02-03 03:36:00,15.3,6.9,29.94,NW,315,0.0,0.0,69,0.00,,---,0.00,VWS V14.01,2013-02-03 08:36:00,
2013-02-03 03:41:00,15.3,6.9,29.94,NW,315,0.0,0.0,69,0.00,,---,0.00,VWS V14.01,2013-02-03 08:41:00,
2013-02-03 03:46:00,15.1,6.8,29.94,NW,315,0.0,0.0,69,0.00,,---,0.00,VWS V14.01,2013-02-03 08:46:00,
2013-02-03 03:51:00,15.1,7.1,29.94,WNW,292,0.0,0.0,70,0.00,,---,0.00,VWS V14.01,2013-02-03 08:51:00,
2013-02-03 03:56:00,15.3,7.2,29.94,WNW,292,0.0,0.0,70,0.00,,---,0.00,VWS V14.01,2013-02-03 08:56:00,
2013-02-03 04:01:00,15.3,7.2,29.94,West,270,0.0,0.0,70,0.00,,---,0.00,VWS V14.01,2013-02-03 09:01:00,
2013-02-03 04:06:00,15.3,7.6,29.94,West,270,0.0,0.0,71,0.00,,---,0.00,VWS V14.01,2013-02-03 09:06:00,
2013-02-03 04:11:00,15.1,7.4,29.94,West,270,0.0,0.0,71,0.00,,---,0.00,VWS V14.01,2013-02-03 09:11:00,
2013-02-03 04:16:00,15.1,7.4,29.94,West,270,0.0,0.0,71,0.00,,---,0.00,VWS V14.01,2013-02-03 09:16:00,
2013-02-03 04:21:00,15.1,7.4,29.94,West,270,0.0,0.0,71,0.00,,---,0.00,VWS V14.01,2013-02-03 09:21:00,
2013-02-03 04:26:00,15.1,7.4,29.94,WNW,292,0.0,0.0,71,0.00,,---,0.00,VWS V14.01,2013-02-03 09:26:00,
2013-02-03 04:31:00,15.1,7.4,29.91,West,270,0.0,0.0,71,0.00,,---,0.00,VWS V14.01,2013-02-03 09:31:00,
2013-02-03 04:36:00,15.1,7.7,29.91,West,270,0.0,0.0,72,0.00,,---,0.00,VWS V14.01,2013-02-03 09:36:00,
2013-02-03 04:41:00,14.7,7.0,29.91,WNW,292,0.0,0.0,71,0.00,,---,0.00,VWS V14.01,2013-02-03 09:41:00,
2013-02-03 04:46:00,14.5,6.9,29.94,WNW,292,0.0,0.0,71,0.00,,---,0.00,VWS V14.01,2013-02-03 09:46:00,
2013-02-03 04:51:00,14.4,6.7,29.94,West,270,0.0,0.0,71,0.00,,---,0.00,VWS V14.01,2013-02-03 09:51:00,
2013-02-03 04:56:00,14.0,6.3,29.94,West,270,0.0,0.0,71,0.00,,---,0.00,VWS V14.01,2013-02-03 09:56:00,
2013-02-03 05:01:00,13.8,6.5,29.91,West,270,0.0,0.0,72,0.00,,---,0.00,VWS V14.01,2013-02-03 10:01:00,
2013-02-03 05:06:00,13.8,6.5,29.91,West,270,0.0,0.0,72,0.00,,---,0.00,VWS V14.01,2013-02-03 10:06:00,
2013-02-03 05:11:00,13.8,6.5,29.91,West,270,0.0,0.0,72,0.00,,---,0.00,VWS V14.01,2013-02-03 10:11:00,
2013-02-03 05:16:00,13.6,6.3,29.94,West,270,0.0,0.0,72,0.00,,---,0.00,VWS V14.01,2013-02-03 10:16:00,
2013-02-03 05:21:00,13.6,6.3,29.94,WNW,292,0.0,0.0,72,0.00,,---,0.00,VWS V14.01,2013-02-03 10:21:00,
2013-02-03 05:26:00,13.5,6.1,29.94,NW,315,0.0,0.0,72,0.00,,---,0.00,VWS V14.01,2013-02-03 10:26:00,
2013-02-03 05:31:00,13.5,6.1,29.94,WNW,292,0.0,0.0,72,0.00,,---,0.00,VWS V14.01,2013-02-03 10:31:00,
2013-02-03 05:36:00,13.1,5.8,29.94,WNW,292,0.0,0.0,72,0.00,,---,0.00,VWS V14.01,2013-02-03 10:36:00,
2013-02-03 05:41:00,12.9,5.6,29.94,WNW,292,0.0,0.0,72,0.00,,---,0.00,VWS V14.01,2013-02-03 10:41:00,
2013-02-03 05:46:00,12.9,5.6,29.94,WNW,292,0.0,0.0,72,0.00,,---,0.00,VWS V14.01,2013-02-03 10:46:00,
2013-02-03 05:51:00,12.7,5.4,29.94,North,0,0.0,0.0,72,0.00,,---,0.00,VWS V14.01,2013-02-03 10:51:00,
2013-02-03 05:56:00,12.7,5.4,29.94,WNW,292,0.0,0.0,72,0.00,,---,0.00,VWS V14.01,2013-02-03 10:56:00,
2013-02-03 06:01:00,12.7,5.4,29.94,WNW,292,0.0,0.0,72,0.00,,---,0.00,VWS V14.01,2013-02-03 11:01:00,
2013-02-03 06:06:00,12.6,5.3,29.94,WNW,292,0.0,0.0,72,0.00,,---,0.00,VWS V14.01,2013-02-03 11:06:00,
2013-02-03 06:11:00,12.4,5.1,29.94,West,270,0.0,0.0,72,0.00,,---,0.00,VWS V14.01,2013-02-03 11:11:00,
2013-02-03 06:16:00,12.2,4.9,29.94,West,270,0.0,0.0,72,0.00,,---,0.00,VWS V14.01,2013-02-03 11:16:00,
2013-02-03 06:21:00,12.0,4.7,29.94,West,270,0.0,0.0,72,0.00,,---,0.00,VWS V14.01,2013-02-03 11:21:00,
2013-02-03 06:26:00,12.0,4.7,29.94,WNW,292,0.0,0.0,72,0.00,,---,0.00,VWS V14.01,2013-02-03 11:26:00,
2013-02-03 06:31:00,11.8,4.6,29.94,WNW,292,0.0,0.0,72,0.00,,---,0.00,VWS V14.01,2013-02-03 11:31:00,
2013-02-03 06:36:00,11.8,4.6,29.94,WNW,292,0.0,0.0,72,0.00,,---,0.00,VWS V14.01,2013-02-03 11:36:00,
2013-02-03 06:41:00,11.7,4.4,29.94,WNW,292,0.0,0.0,72,0.00,,---,0.00,VWS V14.01,2013-02-03 11:41:00,
2013-02-03 06:46:00,11.5,4.2,29.91,West,270,0.0,0.0,72,0.00,,---,0.00,VWS V14.01,2013-02-03 11:46:00,
2013-02-03 06:51:00,11.5,4.2,29.91,West,270,0.0,0.0,72,0.00,,---,0.00,VWS V14.01,2013-02-03 11:51:00,
2013-02-03 06:56:00,11.5,4.2,29.91,WNW,292,0.0,0.0,72,0.00,,---,0.00,VWS V14.01,2013-02-03 11:56:00,
2013-02-03 07:01:00,11.3,4.1,29.94,WNW,292,0.0,0.0,72,0.00,,---,0.00,VWS V14.01,2013-02-03 12:01:00,
2013-02-03 07:06:00,11.3,4.1,29.94,WNW,292,0.0,0.0,72,0.00,,---,0.00,VWS V14.01,2013-02-03 12:06:00,
2013-02-03 07:12:00,11.3,4.1,29.94,West,270,0.0,0.0,72,0.00,,---,0.00,VWS V14.01,2013-02-03 12:12:00,
2013-02-03 07:17:00,11.3,4.1,29.94,West,270,0.0,0.0,72,0.00,,---,0.00,VWS V14.01,2013-02-03 12:17:00,
2013-02-03 07:22:00,11.3,4.1,29.94,WNW,292,0.0,0.0,72,0.00,,---,0.00,VWS V14.01,2013-02-03 12:22:00,
2013-02-03 07:27:00,11.3,4.1,29.94,WNW,292,0.0,0.0,72,0.00,,---,0.00,VWS V14.01,2013-02-03 12:27:00,
2013-02-03 07:32:00,11.3,4.1,29.94,WNW,292,0.0,0.0,72,0.00,,---,0.00,VWS V14.01,2013-02-03 12:32:00,
2013-02-03 07:37:00,11.5,4.2,29.94,WNW,292,0.0,0.0,72,0.00,,---,0.00,VWS V14.01,2013-02-03 12:37:00,
2013-02-03 07:42:00,11.7,4.4,29.94,WNW,292,0.0,0.0,72,0.00,,---,0.00,VWS V14.01,2013-02-03 12:42:00,
2013-02-03 07:47:00,11.7,4.4,29.94,WNW,292,0.0,0.0,72,0.00,,---,0.00,VWS V14.01,2013-02-03 12:47:00,
2013-02-03 07:52:00,12.0,4.7,29.94,South,180,0.0,0.0,72,0.00,,---,0.00,VWS V14.01,2013-02-03 12:52:00,
2013-02-03 07:57:00,12.2,4.9,29.94,South,180,0.0,0.0,72,0.00,,---,0.00,VWS V14.01,2013-02-03 12:57:00,
2013-02-03 08:02:00,12.6,5.3,29.94,West,270,0.0,0.0,72,0.00,,---,0.00,VWS V14.01,2013-02-03 13:02:00,
2013-02-03 08:07:00,13.1,5.8,29.94,WNW,292,0.0,0.0,72,0.00,,---,0.00,VWS V14.01,2013-02-03 13:07:00,
2013-02-03 08:12:00,13.6,6.3,29.94,SSE,158,0.0,0.0,72,0.00,,---,0.00,VWS V14.01,2013-02-03 13:12:00,
2013-02-03 08:17:00,14.0,7.8,29.94,SSW,202,0.0,0.0,76,0.00,,---,0.00,VWS V14.01,2013-02-03 13:17:00,
2013-02-03 08:22:00,14.5,8.1,29.94,SW,225,0.0,0.0,75,0.00,,---,0.00,VWS V14.01,2013-02-03 13:22:00,
2013-02-03 08:27:00,14.9,8.4,29.94,West,270,0.0,0.0,75,0.00,,---,0.00,VWS V14.01,2013-02-03 13:27:00,
2013-02-03 08:32:00,15.3,8.8,29.94,West,270,0.0,0.0,75,0.00,,---,0.00,VWS V14.01,2013-02-03 13:32:00,
2013-02-03 08:37:00,15.8,9.3,29.94,West,270,0.0,0.9,75,0.00,,---,0.00,VWS V14.01,2013-02-03 13:37:00,
2013-02-03 08:42:00,16.3,9.8,29.94,SSE,158,0.0,0.0,75,0.00,,---,0.00,VWS V14.01,2013-02-03 13:42:00,
2013-02-03 08:47:00,16.9,10.3,29.94,NNE,22,2.0,2.0,75,0.00,,---,0.00,VWS V14.01,2013-02-03 13:47:00,
2013-02-03 08:52:00,17.2,10.4,29.94,NE,45,0.0,0.0,74,0.00,,---,0.00,VWS V14.01,2013-02-03 13:52:00,
2013-02-03 08:57:00,17.8,10.6,29.94,WNW,292,1.1,2.0,73,0.00,,---,0.00,VWS V14.01,2013-02-03 13:57:00,
2013-02-03 09:02:00,18.1,10.6,29.94,West,270,1.1,1.6,72,0.00,,---,0.00,VWS V14.01,2013-02-03 14:02:00,
2013-02-03 09:07:00,18.3,10.2,29.94,NW,315,2.0,2.0,70,0.00,,---,0.00,VWS V14.01,2013-02-03 14:07:00,
2013-02-03 09:12:00,18.5,10.0,29.94,WNW,292,0.0,0.0,69,0.00,,---,0.00,VWS V14.01,2013-02-03 14:12:00,
2013-02-03 09:17:00,19.0,10.2,29.94,WNW,292,2.2,2.2,68,0.00,,---,0.00,VWS V14.01,2013-02-03 14:17:00,
2013-02-03 09:22:00,19.4,9.9,29.94,ESE,112,2.0,3.1,66,0.00,,---,0.00,VWS V14.01,2013-02-03 14:22:00,
2013-02-03 09:27:00,19.9,10.4,29.94,SSE,158,0.0,0.0,66,0.00,,---,0.00,VWS V14.01,2013-02-03 14:27:00,
2013-02-03 09:32:00,20.3,10.1,29.91,South,180,1.3,2.7,64,0.00,,---,0.00,VWS V14.01,2013-02-03 14:32:00,
2013-02-03 09:37:00,20.7,9.7,29.91,South,180,2.7,2.7,62,0.00,,---,0.00,VWS V14.01,2013-02-03 14:37:00,
2013-02-03 09:42:00,20.7,9.7,29.91,SE,135,0.0,0.0,62,0.00,,---,0.00,VWS V14.01,2013-02-03 14:42:00,
2013-02-03 09:47:00,20.7,9.4,29.94,SSE,158,2.0,3.4,61,0.00,,---,0.00,VWS V14.01,2013-02-03 14:47:00,
2013-02-03 09:52:00,21.0,9.7,29.94,ESE,112,0.0,0.0,61,0.00,,---,0.00,VWS V14.01,2013-02-03 14:52:00,
2013-02-03 09:57:00,21.6,10.2,29.94,WSW,248,0.9,0.9,61,0.00,,---,0.00,VWS V14.01,2013-02-03 14:57:00,
2013-02-03 10:02:00,22.5,11.1,29.91,East,90,1.6,1.6,61,0.00,,---,0.00,VWS V14.01,2013-02-03 15:02:00,
2013-02-03 10:07:00,22.6,9.3,29.91,ENE,68,4.9,4.9,56,0.00,,---,0.00,VWS V14.01,2013-02-03 15:07:00,
2013-02-03 10:12:00,23.0,10.1,29.91,WSW,248,2.9,2.9,57,0.00,,---,0.00,VWS V14.01,2013-02-03 15:12:00,
2013-02-03 10:17:00,23.2,10.6,29.91,East,90,0.0,1.3,58,0.00,,---,0.00,VWS V14.01,2013-02-03 15:17:00,
2013-02-03 10:22:00,23.0,10.1,29.91,SE,135,1.1,2.0,57,0.00,,---,0.00,VWS V14.01,2013-02-03 15:22:00,
2013-02-03 10:27:00,23.2,9.8,29.91,SSW,202,1.1,1.1,56,0.00,,---,0.00,VWS V14.01,2013-02-03 15:27:00,
2013-02-03 10:32:00,23.4,9.6,29.88,WSW,248,0.0,0.0,55,0.00,,---,0.00,VWS V14.01,2013-02-03 15:32:00,
2013-02-03 10:37:00,23.4,9.6,29.88,South,180,1.1,2.2,55,0.00,,---,0.00,VWS V14.01,2013-02-03 15:37:00,
2013-02-03 10:42:00,23.5,9.8,29.88,NW,315,2.0,3.1,55,0.00,,---,0.00,VWS V14.01,2013-02-03 15:42:00,
2013-02-03 10:47:00,24.1,9.9,29.88,West,270,1.1,1.1,54,0.00,,---,0.00,VWS V14.01,2013-02-03 15:47:00,
2013-02-03 10:52:00,23.7,9.5,29.88,West,270,1.1,1.6,54,0.00,,---,0.00,VWS V14.01,2013-02-03 15:52:00,
2013-02-03 10:57:00,23.7,9.1,29.88,NE,45,2.9,3.4,53,0.00,,---,0.00,VWS V14.01,2013-02-03 15:57:00,
2013-02-03 11:02:00,24.1,9.9,29.88,SE,135,2.9,2.9,54,0.00,,---,0.00,VWS V14.01,2013-02-03 16:02:00,
2013-02-03 11:07:00,24.6,10.4,29.88,WNW,292,0.0,1.1,54,0.00,,---,0.00,VWS V14.01,2013-02-03 16:07:00,
2013-02-03 11:12:00,25.0,10.3,29.88,West,270,1.3,3.1,53,0.00,,---,0.00,VWS V14.01,2013-02-03 16:12:00,
2013-02-03 11:17:00,25.2,10.4,29.88,SE,135,0.9,1.6,53,0.00,,---,0.00,VWS V14.01,2013-02-03 16:17:00,
2013-02-03 11:22:00,26.4,11.2,29.88,ESE,112,4.3,4.3,52,0.00,,---,0.00,VWS V14.01,2013-02-03 16:22:00,
2013-02-03 11:27:00,26.2,10.6,29.88,SSW,202,1.3,2.7,51,0.00,,---,0.00,VWS V14.01,2013-02-03 16:27:00,
2013-02-03 11:32:00,26.4,10.3,29.88,SE,135,2.7,4.0,50,0.00,,---,0.00,VWS V14.01,2013-02-03 16:32:00,
2013-02-03 11:37:00,25.3,8.4,29.88,SE,135,0.0,0.9,48,0.00,,---,0.00,VWS V14.01,2013-02-03 16:37:00,
2013-02-03 11:42:00,25.3,9.3,29.88,SE,135,4.3,4.3,50,0.00,,---,0.00,VWS V14.01,2013-02-03 16:42:00,
2013-02-03 11:48:00,25.3,8.9,29.85,SE,135,0.9,2.9,49,0.00,,---,0.00,VWS V14.01,2013-02-03 16:48:00,
2013-02-03 11:53:00,26.4,8.9,29.85,SE,135,0.0,2.2,47,0.00,,---,0.00,VWS V14.01,2013-02-03 16:53:00,
2013-02-03 11:58:00,26.4,9.9,29.85,WSW,248,1.6,2.0,49,0.00,,---,0.00,VWS V14.01,2013-02-03 16:58:00,
2013-02-03 12:03:00,26.2,8.8,29.85,SE,135,2.9,3.1,47,0.00,,---,0.00,VWS V14.01,2013-02-03 17:03:00,
2013-02-03 12:08:00,26.1,8.6,29.85,WNW,292,2.5,2.5,47,0.00,,---,0.00,VWS V14.01,2013-02-03 17:08:00,
2013-02-03 12:13:00,26.1,9.1,29.85,SSE,158,2.0,3.4,48,0.00,,---,0.00,VWS V14.01,2013-02-03 17:13:00,
2013-02-03 12:18:00,27.3,9.8,29.85,SE,135,5.4,5.4,47,0.00,,---,0.00,VWS V14.01,2013-02-03 17:18:00,
2013-02-03 12:23:00,27.9,10.3,29.85,SSE,158,0.9,3.1,47,0.00,,---,0.00,VWS V14.01,2013-02-03 17:23:00,
2013-02-03 12:28:00,27.9,10.7,29.85,SE,135,1.6,2.2,48,0.00,,---,0.00,VWS V14.01,2013-02-03 17:28:00,
2013-02-03 12:33:00,28.6,10.4,29.82,SE,135,2.5,2.5,46,0.00,,---,0.00,VWS V14.01,2013-02-03 17:33:00,
2013-02-03 12:38:00,28.4,10.3,29.82,WSW,248,2.7,2.9,46,0.00,,---,0.00,VWS V14.01,2013-02-03 17:38:00,
2013-02-03 12:43:00,28.4,9.8,29.82,SE,135,1.3,1.3,45,0.00,,---,0.00,VWS V14.01,2013-02-03 17:43:00,
2013-02-03 12:48:00,28.8,11.1,29.82,WNW,292,2.0,2.0,47,0.00,,---,0.00,VWS V14.01,2013-02-03 17:48:00,
2013-02-03 12:53:00,29.7,11.4,29.82,SSE,158,2.0,2.0,46,0.00,,---,0.00,VWS V14.01,2013-02-03 17:53:00,
2013-02-03 12:58:00,30.7,12.4,29.82,SE,135,1.1,1.1,46,0.00,,---,0.00,VWS V14.01,2013-02-03 17:58:00,
2013-02-03 13:03:00,31.1,12.2,29.82,SSE,158,2.2,2.5,45,0.00,,---,0.00,VWS V14.01,2013-02-03 18:03:00,
2013-02-03 13:08:00,31.1,12.8,29.82,West,270,2.0,2.0,46,0.00,,---,0.00,VWS V14.01,2013-02-03 18:08:00,
2013-02-03 13:13:00,31.6,12.2,29.82,West,270,0.0,0.0,44,0.00,,---,0.00,VWS V14.01,2013-02-03 18:13:00,
2013-02-03 13:18:00,30.9,11.1,29.82,WNW,292,1.3,1.3,43,0.00,,---,0.00,VWS V14.01,2013-02-03 18:18:00,
2013-02-03 13:23:00,30.0,10.2,29.82,ESE,112,0.0,1.6,43,0.00,,---,0.00,VWS V14.01,2013-02-03 18:23:00,
2013-02-03 13:28:00,29.8,10.1,29.82,WSW,248,1.3,1.3,43,0.00,,---,0.00,VWS V14.01,2013-02-03 18:28:00,
2013-02-03 13:33:00,29.8,10.6,29.82,SE,135,1.3,1.3,44,0.00,,---,0.00,VWS V14.01,2013-02-03 18:33:00,
2013-02-03 13:38:00,29.5,9.8,29.82,WSW,248,0.0,2.0,43,0.00,,---,0.00,VWS V14.01,2013-02-03 18:38:00,
2013-02-03 13:43:00,29.1,9.9,29.82,SE,135,3.1,3.1,44,0.00,,---,0.00,VWS V14.01,2013-02-03 18:43:00,
2013-02-03 13:48:00,28.6,9.4,29.79,WNW,292,0.0,0.0,44,0.00,,---,0.00,VWS V14.01,2013-02-03 18:48:00,
2013-02-03 13:53:00,28.6,9.9,29.79,West,270,0.0,0.0,45,0.00,,---,0.00,VWS V14.01,2013-02-03 18:53:00,
2013-02-03 13:58:00,29.1,10.4,29.79,WNW,292,2.5,2.5,45,0.00,,---,0.00,VWS V14.01,2013-02-03 18:58:00,
2013-02-03 14:03:00,29.5,10.3,29.79,West,270,3.1,3.1,44,0.00,,---,0.00,VWS V14.01,2013-02-03 19:03:00,
2013-02-03 14:08:00,30.0,11.3,29.79,WNW,292,3.1,3.1,45,0.00,,---,0.00,VWS V14.01,2013-02-03 19:08:00,
2013-02-03 14:13:00,30.0,10.2,29.79,SE,135,2.2,2.2,43,0.00,,---,0.00,VWS V14.01,2013-02-03 19:13:00,
2013-02-03 14:18:00,30.0,10.8,29.76,SE,135,2.5,2.5,44,0.00,,---,0.00,VWS V14.01,2013-02-03 19:18:00,
2013-02-03 14:23:00,30.2,10.9,29.76,SE,135,1.6,2.0,44,0.00,,---,0.00,VWS V14.01,2013-02-03 19:23:00,
2013-02-03 14:28:00,30.6,10.2,29.76,SE,135,2.7,2.9,42,0.00,,---,0.00,VWS V14.01,2013-02-03 19:28:00,
2013-02-03 14:33:00,30.7,10.9,29.76,SE,135,3.1,3.1,43,0.00,,---,0.00,VWS V14.01,2013-02-03 19:33:00,
2013-02-03 14:38:00,30.2,10.9,29.76,SE,135,2.9,2.9,44,0.00,,---,0.00,VWS V14.01,2013-02-03 19:38:00,
2013-02-03 14:43:00,29.5,9.8,29.76,WNW,292,0.0,0.9,43,0.00,,---,0.00,VWS V14.01,2013-02-03 19:43:00,
2013-02-03 14:48:00,29.1,8.9,29.76,SW,225,2.9,2.9,42,0.00,,---,0.00,VWS V14.01,2013-02-03 19:48:00,
2013-02-03 14:53:00,28.0,7.9,29.76,NNE,22,0.9,2.0,42,0.00,,---,0.00,VWS V14.01,2013-02-03 19:53:00,
2013-02-03 14:58:00,27.7,8.6,29.76,East,90,1.6,1.6,44,0.00,,---,0.00,VWS V14.01,2013-02-03 19:58:00,
2013-02-03 15:03:00,27.3,7.8,29.76,SE,135,1.3,1.6,43,0.00,,---,0.00,VWS V14.01,2013-02-03 20:03:00,
2013-02-03 15:08:00,27.0,7.5,29.76,WNW,292,1.6,6.0,43,0.00,,---,0.00,VWS V14.01,2013-02-03 20:08:00,
2013-02-03 15:13:00,27.0,7.5,29.76,SSE,158,0.9,2.5,43,0.00,,---,0.00,VWS V14.01,2013-02-03 20:13:00,
2013-02-03 15:18:00,26.4,7.0,29.76,East,90,2.0,3.4,43,0.00,,---,0.00,VWS V14.01,2013-02-03 20:18:00,
2013-02-03 15:23:00,26.4,7.5,29.76,West,270,0.0,2.2,44,0.00,,---,0.00,VWS V14.01,2013-02-03 20:23:00,
2013-02-03 15:28:00,26.2,7.8,29.76,ESE,112,0.0,0.0,45,0.00,,---,0.00,VWS V14.01,2013-02-03 20:28:00,
2013-02-03 15:33:00,26.1,6.6,29.76,ENE,68,2.0,2.5,43,0.00,,---,0.00,VWS V14.01,2013-02-03 20:33:00,
2013-02-03 15:39:00,25.9,7.0,29.76,South,180,1.6,2.5,44,0.00,,---,0.00,VWS V14.01,2013-02-03 20:39:00,
2013-02-03 15:43:00,25.7,6.8,29.76,SE,135,0.9,2.7,44,0.00,,---,0.00,VWS V14.01,2013-02-03 20:43:00,
2013-02-03 15:48:00,25.5,6.7,29.76,SSE,158,0.0,0.9,44,0.00,,---,0.00,VWS V14.01,2013-02-03 20:48:00,
2013-02-03 15:54:00,25.5,6.7,29.76,SE,135,0.0,0.9,44,0.00,,---,0.00,VWS V14.01,2013-02-03 20:54:00,
2013-02-03 15:59:00,25.3,6.5,29.76,SSE,158,3.8,3.8,44,0.00,,---,0.00,VWS V14.01,2013-02-03 20:59:00,
2013-02-03 16:04:00,25.2,6.3,29.74,SE,135,2.7,3.6,44,0.00,,---,0.00,VWS V14.01,2013-02-03 21:04:00,
2013-02-03 16:09:00,25.0,6.2,29.74,SE,135,0.0,1.6,44,0.00,,---,0.00,VWS V14.01,2013-02-03 21:09:00,
2013-02-03 16:14:00,25.0,6.2,29.74,North,0,0.0,0.0,44,0.00,,---,0.00,VWS V14.01,2013-02-03 21:14:00,
2013-02-03 16:19:00,25.0,6.2,29.76,East,90,1.3,1.6,44,0.00,,---,0.00,VWS V14.01,2013-02-03 21:19:00,
2013-02-03 16:24:00,24.8,6.5,29.76,WSW,248,0.0,0.0,45,0.00,,---,0.00,VWS V14.01,2013-02-03 21:24:00,
2013-02-03 16:29:00,24.8,7.0,29.76,SW,225,0.0,0.0,46,0.00,,---,0.00,VWS V14.01,2013-02-03 21:29:00,
2013-02-03 16:34:00,24.8,7.0,29.74,SE,135,0.9,1.6,46,0.00,,---,0.00,VWS V14.01,2013-02-03 21:34:00,
2013-02-03 16:39:00,24.6,6.8,29.74,SSE,158,0.0,1.3,46,0.00,,---,0.00,VWS V14.01,2013-02-03 21:39:00,
2013-02-03 16:44:00,24.6,6.8,29.74,NNE,22,0.0,1.1,46,0.00,,---,0.00,VWS V14.01,2013-02-03 21:44:00,
2013-02-03 16:49:00,24.6,6.8,29.76,WNW,292,0.0,0.0,46,0.00,,---,0.00,VWS V14.01,2013-02-03 21:49:00,
2013-02-03 16:54:00,24.4,6.6,29.76,SE,135,0.0,2.0,46,0.00,,---,0.00,VWS V14.01,2013-02-03 21:54:00,
2013-02-03 16:59:00,24.4,7.1,29.76,West,270,0.0,0.0,47,0.00,,---,0.00,VWS V14.01,2013-02-03 21:59:00,
2013-02-03 17:04:00,24.4,7.1,29.76,East,90,0.0,1.6,47,0.00,,---,0.00,VWS V14.01,2013-02-03 22:04:00,
2013-02-03 17:09:00,24.4,7.1,29.76,SE,135,0.0,0.0,47,0.00,,---,0.00,VWS V14.01,2013-02-03 22:09:00,
2013-02-03 17:14:00,24.3,6.9,29.76,ESE,112,0.0,0.0,47,0.00,,---,0.00,VWS V14.01,2013-02-03 22:14:00,
2013-02-03 17:19:00,23.9,6.6,29.79,NNE,22,2.2,2.2,47,0.00,,---,0.00,VWS V14.01,2013-02-03 22:19:00,
2013-02-03 17:24:00,23.7,6.9,29.79,WNW,292,0.0,0.0,48,0.00,,---,0.00,VWS V14.01,2013-02-03 22:24:00,
2013-02-03 17:29:00,23.5,6.8,29.79,WNW,292,1.3,1.6,48,0.00,,---,0.00,VWS V14.01,2013-02-03 22:29:00,
2013-02-03 17:34:00,23.4,6.6,29.76,WNW,292,0.0,0.0,48,0.00,,---,0.00,VWS V14.01,2013-02-03 22:34:00,
2013-02-03 17:39:00,23.2,6.4,29.76,West,270,0.0,0.0,48,0.00,,---,0.00,VWS V14.01,2013-02-03 22:39:00,
2013-02-03 17:44:00,22.8,6.5,29.76,North,0,0.0,0.0,49,0.00,,---,0.00,VWS V14.01,2013-02-03 22:44:00,
2013-02-03 17:49:00,22.8,6.5,29.76,West,270,0.0,0.0,49,0.00,,---,0.00,VWS V14.01,2013-02-03 22:49:00,
2013-02-03 17:54:00,22.6,6.8,29.76,NNW,338,0.0,0.0,50,0.00,,---,0.00,VWS V14.01,2013-02-03 22:54:00,
2013-02-03 17:59:00,22.5,6.6,29.76,NW,315,0.0,0.0,50,0.00,,---,0.00,VWS V14.01,2013-02-03 22:59:00,
2013-02-03 18:04:00,22.3,6.5,29.76,West,270,0.0,0.0,50,0.00,,---,0.00,VWS V14.01,2013-02-03 23:04:00,
2013-02-03 18:09:00,22.1,6.3,29.76,NE,45,0.0,0.0,50,0.00,,---,0.00,VWS V14.01,2013-02-03 23:09:00,
2013-02-03 18:14:00,21.9,6.6,29.76,West,270,0.0,0.0,51,0.00,,---,0.00,VWS V14.01,2013-02-03 23:14:00,
2013-02-03 18:19:00,21.7,6.4,29.76,NW,315,0.0,0.0,51,0.00,,---,0.00,VWS V14.01,2013-02-03 23:19:00,
2013-02-03 18:24:00,21.6,6.2,29.76,NW,315,0.0,0.0,51,0.00,,---,0.00,VWS V14.01,2013-02-03 23:24:00,
2013-02-03 18:29:00,21.2,6.3,29.76,East,90,0.0,0.0,52,0.00,,---,0.00,VWS V14.01,2013-02-03 23:29:00,
2013-02-03 18:34:00,21.2,6.3,29.76,East,90,0.0,0.0,52,0.00,,---,0.00,VWS V14.01,2013-02-03 23:34:00,
2013-02-03 18:39:00,21.2,6.8,29.76,North,0,0.0,0.0,53,0.00,,---,0.00,VWS V14.01,2013-02-03 23:39:00,
2013-02-03 18:44:00,21.0,6.6,29.76,WNW,292,0.0,0.0,53,0.00,,---,0.00,VWS V14.01,2013-02-03 23:44:00,
2013-02-03 18:49:00,21.0,6.6,29.76,WNW,292,0.0,0.0,53,0.00,,---,0.00,VWS V14.01,2013-02-03 23:49:00,
2013-02-03 18:54:00,20.8,6.4,29.76,ENE,68,0.0,0.0,53,0.00,,---,0.00,VWS V14.01,2013-02-03 23:54:00,
2013-02-03 18:59:00,20.7,6.2,29.76,West,270,0.0,0.0,53,0.00,,---,0.00,VWS V14.01,2013-02-03 23:59:00,
2013-02-03 19:04:00,20.5,6.5,29.76,WNW,292,0.0,0.0,54,0.00,,---,0.00,VWS V14.01,2013-02-04 00:04:00,
2013-02-03 19:09:00,20.3,6.3,29.76,NNE,22,0.0,0.0,54,0.00,,---,0.00,VWS V14.01,2013-02-04 00:09:00,
2013-02-03 19:15:00,20.3,6.3,29.79,NNW,338,0.0,0.0,54,0.00,,---,0.00,VWS V14.01,2013-02-04 00:15:00,
2013-02-03 19:20:00,20.3,6.7,29.79,NNW,338,0.0,0.0,55,0.00,,---,0.00,VWS V14.01,2013-02-04 00:20:00,
2013-02-03 19:24:00,20.3,6.7,29.79,WNW,292,0.0,0.0,55,0.00,,---,0.00,VWS V14.01,2013-02-04 00:24:00,
2013-02-03 19:30:00,20.1,6.2,29.76,NW,315,0.0,0.0,54,0.00,,---,0.00,VWS V14.01,2013-02-04 00:30:00,
2013-02-03 19:35:00,19.9,6.0,29.76,SSE,158,0.0,0.0,54,0.00,,---,0.00,VWS V14.01,2013-02-04 00:35:00,
2013-02-03 19:40:00,19.9,6.4,29.76,West,270,0.0,0.0,55,0.00,,---,0.00,VWS V14.01,2013-02-04 00:40:00,
2013-02-03 19:45:00,19.9,6.4,29.76,NW,315,0.0,0.0,55,0.00,,---,0.00,VWS V14.01,2013-02-04 00:45:00,
2013-02-03 19:50:00,19.8,6.2,29.76,NW,315,0.0,0.0,55,0.00,,---,0.00,VWS V14.01,2013-02-04 00:50:00,
2013-02-03 19:55:00,19.8,6.2,29.76,NW,315,0.0,0.0,55,0.00,,---,0.00,VWS V14.01,2013-02-04 00:55:00,
2013-02-03 20:00:00,19.6,6.1,29.76,NW,315,0.0,0.0,55,0.00,,---,0.00,VWS V14.01,2013-02-04 01:00:00,
2013-02-03 20:05:00,19.6,6.1,29.76,East,90,0.0,0.0,55,0.00,,---,0.00,VWS V14.01,2013-02-04 01:05:00,
2013-02-03 20:10:00,19.4,6.3,29.76,East,90,0.0,0.0,56,0.00,,---,0.00,VWS V14.01,2013-02-04 01:10:00,
2013-02-03 20:15:00,19.4,6.3,29.79,WNW,292,0.0,0.0,56,0.00,,---,0.00,VWS V14.01,2013-02-04 01:15:00,
2013-02-03 20:20:00,19.4,6.3,29.79,NW,315,0.0,0.0,56,0.00,,---,0.00,VWS V14.01,2013-02-04 01:20:00,
2013-02-03 20:25:00,19.4,6.3,29.79,WNW,292,0.0,0.0,56,0.00,,---,0.00,VWS V14.01,2013-02-04 01:25:00,
2013-02-03 20:30:00,19.2,6.5,29.76,WNW,292,0.0,0.0,57,0.00,,---,0.00,VWS V14.01,2013-02-04 01:30:00,
2013-02-03 20:35:00,19.0,6.3,29.76,WNW,292,0.0,0.0,57,0.00,,---,0.00,VWS V14.01,2013-02-04 01:35:00,
2013-02-03 20:40:00,18.9,6.2,29.76,West,270,0.0,0.0,57,0.00,,---,0.00,VWS V14.01,2013-02-04 01:40:00,
2013-02-03 20:45:00,18.7,6.0,29.74,West,270,0.0,0.0,57,0.00,,---,0.00,VWS V14.01,2013-02-04 01:45:00,
2013-02-03 20:50:00,18.7,6.0,29.74,WNW,292,0.0,0.0,57,0.00,,---,0.00,VWS V14.01,2013-02-04 01:50:00,
2013-02-03 20:55:00,18.7,6.0,29.74,NNE,22,0.0,0.0,57,0.00,,---,0.00,VWS V14.01,2013-02-04 01:55:00,
2013-02-03 21:00:00,18.7,6.0,29.76,East,90,0.0,0.0,57,0.00,,---,0.00,VWS V14.01,2013-02-04 02:00:00,
2013-02-03 21:05:00,18.7,6.0,29.76,East,90,0.0,0.0,57,0.00,,---,0.00,VWS V14.01,2013-02-04 02:05:00,
2013-02-03 21:10:00,18.9,6.5,29.76,SSE,158,0.0,0.0,58,0.00,,---,0.00,VWS V14.01,2013-02-04 02:10:00,
2013-02-03 21:15:00,18.9,6.5,29.76,WNW,292,0.0,0.0,58,0.00,,---,0.00,VWS V14.01,2013-02-04 02:15:00,
2013-02-03 21:20:00,18.9,6.5,29.76,NW,315,0.0,0.0,58,0.00,,---,0.00,VWS V14.01,2013-02-04 02:20:00,
2013-02-03 21:25:00,18.9,6.5,29.76,SSE,158,0.0,0.0,58,0.00,,---,0.00,VWS V14.01,2013-02-04 02:25:00,
2013-02-03 21:30:00,19.0,6.7,29.76,SE,135,0.0,0.0,58,0.00,,---,0.00,VWS V14.01,2013-02-04 02:30:00,
2013-02-03 21:35:00,19.0,6.7,29.76,ESE,112,0.0,0.0,58,0.00,,---,0.00,VWS V14.01,2013-02-04 02:35:00,
2013-02-03 21:40:00,18.9,6.5,29.76,ESE,112,0.0,0.0,58,0.00,,---,0.00,VWS V14.01,2013-02-04 02:40:00,
2013-02-03 21:45:00,18.7,6.4,29.76,East,90,0.0,0.0,58,0.00,,---,0.00,VWS V14.01,2013-02-04 02:45:00,
2013-02-03 21:50:00,18.7,6.4,29.76,East,90,0.0,0.0,58,0.00,,---,0.00,VWS V14.01,2013-02-04 02:50:00,
2013-02-03 21:55:00,18.7,6.4,29.76,East,90,0.0,0.0,58,0.00,,---,0.00,VWS V14.01,2013-02-04 02:55:00,
2013-02-03 22:00:00,18.7,6.4,29.76,East,90,0.0,0.0,58,0.00,,---,0.00,VWS V14.01,2013-02-04 03:00:00,
2013-02-03 22:05:00,18.5,6.2,29.76,West,270,0.0,2.0,58,0.00,,---,0.00,VWS V14.01,2013-02-04 03:05:00,
2013-02-03 22:10:00,18.5,6.2,29.76,NW,315,0.0,0.0,58,0.00,,---,0.00,VWS V14.01,2013-02-04 03:10:00,
2013-02-03 22:15:00,18.3,6.0,29.76,East,90,0.0,0.0,58,0.00,,---,0.00,VWS V14.01,2013-02-04 03:15:00,
2013-02-03 22:20:00,18.3,6.0,29.76,SE,135,0.0,0.0,58,0.00,,---,0.00,VWS V14.01,2013-02-04 03:20:00,
2013-02-03 22:25:00,18.1,5.9,29.76,West,270,0.0,0.0,58,0.00,,---,0.00,VWS V14.01,2013-02-04 03:25:00,
2013-02-03 22:30:00,17.8,5.5,29.76,NW,315,0.0,0.0,58,0.00,,---,0.00,VWS V14.01,2013-02-04 03:30:00,
2013-02-03 22:35:00,17.8,5.5,29.76,ESE,112,0.0,0.0,58,0.00,,---,0.00,VWS V14.01,2013-02-04 03:35:00,
2013-02-03 22:40:00,17.6,5.3,29.76,South,180,0.0,0.0,58,0.00,,---,0.00,VWS V14.01,2013-02-04 03:40:00,
2013-02-03 22:45:00,17.2,5.4,29.76,South,180,0.0,0.0,59,0.00,,---,0.00,VWS V14.01,2013-02-04 03:45:00,
2013-02-03 22:50:00,17.1,5.2,29.76,SE,135,0.0,0.0,59,0.00,,---,0.00,VWS V14.01,2013-02-04 03:50:00,
2013-02-03 22:55:00,16.9,5.0,29.76,SE,135,0.0,0.0,59,0.00,,---,0.00,VWS V14.01,2013-02-04 03:55:00,
2013-02-03 23:00:00,16.7,4.9,29.76,SSW,202,0.0,0.0,59,0.00,,---,0.00,VWS V14.01,2013-02-04 04:00:00,
2013-02-03 23:05:00,16.7,4.9,29.76,West,270,0.0,0.0,59,0.00,,---,0.00,VWS V14.01,2013-02-04 04:05:00,
2013-02-03 23:10:00,16.5,4.7,29.76,WNW,292,0.0,0.0,59,0.00,,---,0.00,VWS V14.01,2013-02-04 04:10:00,
2013-02-03 23:15:00,16.5,5.1,29.74,WNW,292,0.0,0.0,60,0.00,,---,0.00,VWS V14.01,2013-02-04 04:15:00,
2013-02-03 23:20:00,16.3,4.9,29.74,ENE,68,0.0,0.0,60,0.00,,---,0.00,VWS V14.01,2013-02-04 04:20:00,
2013-02-03 23:25:00,16.2,4.7,29.74,SE,135,0.0,0.0,60,0.00,,---,0.00,VWS V14.01,2013-02-04 04:25:00,
2013-02-03 23:30:00,16.2,4.7,29.74,ESE,112,0.0,0.0,60,0.00,,---,0.00,VWS V14.01,2013-02-04 04:30:00,
2013-02-03 23:35:00,16.0,4.6,29.74,SSE,158,0.0,0.0,60,0.00,,---,0.00,VWS V14.01,2013-02-04 04:35:00,
2013-02-03 23:40:00,15.8,4.8,29.74,SE,135,0.0,0.0,61,0.00,,---,0.00,VWS V14.01,2013-02-04 04:40:00,
2013-02-03 23:45:00,15.8,4.8,29.74,West,270,0.0,0.0,61,0.00,,---,0.00,VWS V14.01,2013-02-04 04:45:00,
2013-02-03 23:50:00,15.6,4.6,29.74,West,270,0.0,0.0,61,0.00,,---,0.00,VWS V14.01,2013-02-04 04:50:00,
2013-02-03 23:55:00,15.6,4.9,29.74,West,270,0.0,0.0,62,0.00,,---,0.00,VWS V14.01,2013-02-04 04:55:00,